createdAt,value
2018-10-03T00:00:35.697Z,4.43
2018-10-03T00:03:04.580Z,2.90
2018-10-03T00:05:33.531Z,3.70
2018-10-03T00:08:03.471Z,3.83
2018-10-03T00:10:32.440Z,4.00
2018-10-03T00:13:01.294Z,8.83
2018-10-03T00:15:32.437Z,4.20
2018-10-03T00:18:02.950Z,3.53
2018-10-03T00:20:32.314Z,1.60
2018-10-03T00:23:04.469Z,3.47
2018-10-03T00:25:34.359Z,4.13
2018-10-03T00:28:03.260Z,4.47
2018-10-03T00:30:32.239Z,4.37
2018-10-03T00:33:01.075Z,4.07
2018-10-03T00:35:30.448Z,5.20
2018-10-03T00:38:00.590Z,3.53
2018-10-03T00:40:29.704Z,3.07
2018-10-03T00:42:58.547Z,3.77
2018-10-03T00:45:27.892Z,5.17
2018-10-03T00:47:56.791Z,3.57
2018-10-03T00:50:25.661Z,4.53
2018-10-03T00:52:54.583Z,5.37
2018-10-03T00:55:23.481Z,1.67
2018-10-03T00:57:52.695Z,2.17
2018-10-03T01:00:21.565Z,3.03
2018-10-03T01:02:50.507Z,1.87
2018-10-03T01:05:21.041Z,2.10
2018-10-03T01:07:50.620Z,2.93
2018-10-03T01:10:20.082Z,3.67
2018-10-03T01:12:49.198Z,4.83
2018-10-03T01:15:18.201Z,2.93
2018-10-03T01:17:48.311Z,7.77
2018-10-03T01:20:17.455Z,2.37
2018-10-03T01:22:47.788Z,4.37
2018-10-03T01:25:16.696Z,2.50
2018-10-03T01:27:45.525Z,3.70
2018-10-03T01:30:15.752Z,3.57
2018-10-03T01:32:44.728Z,1.97
2018-10-03T01:35:13.787Z,2.17
2018-10-03T01:37:43.308Z,3.10
2018-10-03T01:40:12.677Z,4.33
2018-10-03T01:42:41.824Z,5.07
2018-10-03T01:45:10.851Z,5.40
2018-10-03T01:47:40.527Z,2.83
2018-10-03T01:50:10.454Z,3.37
2018-10-03T01:52:39.697Z,4.90
2018-10-03T01:55:09.198Z,2.93
2018-10-03T01:57:37.995Z,2.47
2018-10-03T02:00:08.377Z,2.03
2018-10-03T02:02:37.679Z,2.00
2018-10-03T02:05:06.513Z,3.03
2018-10-03T02:07:35.632Z,2.63
2018-10-03T02:10:05.395Z,2.13
2018-10-03T02:12:34.203Z,3.40
2018-10-03T02:15:03.740Z,1.73
2018-10-03T02:17:32.703Z,2.00
2018-10-03T02:20:01.645Z,1.57
2018-10-03T02:22:30.523Z,3.57
2018-10-03T02:24:59.979Z,3.30
2018-10-03T02:27:28.876Z,4.13
2018-10-03T02:29:59.179Z,3.07
2018-10-03T02:32:29.150Z,2.93
2018-10-03T02:34:58.162Z,2.17
2018-10-03T02:37:27.020Z,1.90
2018-10-03T02:39:56.052Z,1.73
2018-10-03T02:42:25.527Z,2.30
2018-10-03T02:44:54.447Z,1.50
2018-10-03T02:47:23.323Z,3.37
2018-10-03T02:49:53.314Z,1.37
2018-10-03T02:52:22.208Z,3.70
2018-10-03T02:54:51.029Z,3.67
2018-10-03T02:57:22.496Z,1.73
2018-10-03T02:59:52.275Z,2.33
2018-10-03T03:02:21.198Z,4.10
2018-10-03T03:04:50.518Z,3.43
2018-10-03T03:07:19.330Z,2.63
2018-10-03T03:09:48.269Z,2.57
2018-10-03T03:12:17.251Z,2.07
2018-10-03T03:14:46.191Z,5.03
2018-10-03T03:17:15.030Z,5.13
2018-10-03T03:19:44.031Z,2.43
2018-10-03T03:22:12.916Z,2.87
2018-10-03T03:24:41.789Z,4.27
2018-10-03T03:27:10.792Z,1.83
2018-10-03T03:29:39.679Z,2.60
2018-10-03T03:32:08.700Z,1.83
2018-10-03T03:34:37.635Z,4.03
2018-10-03T03:37:07.052Z,4.80
2018-10-03T03:39:35.873Z,1.43
2018-10-03T03:42:05.622Z,3.50
2018-10-03T03:44:35.132Z,3.90
2018-10-03T03:47:04.441Z,3.20
2018-10-03T03:49:33.407Z,2.93
2018-10-03T03:52:02.605Z,1.80
2018-10-03T03:54:31.523Z,2.90
2018-10-03T03:57:00.359Z,3.83
2018-10-03T03:59:29.560Z,2.13
2018-10-03T04:01:59.213Z,3.33
2018-10-03T04:04:28.139Z,3.70
2018-10-03T04:06:57.016Z,3.73
2018-10-03T04:09:27.084Z,1.47
2018-10-03T04:11:55.903Z,1.67
2018-10-03T04:14:24.837Z,3.40
2018-10-03T04:16:53.684Z,2.97
2018-10-03T04:19:22.684Z,4.93
2018-10-03T04:21:51.496Z,3.60
2018-10-03T04:24:21.318Z,1.67
2018-10-03T04:26:51.473Z,1.33
2018-10-03T04:29:19.892Z,1.47
2018-10-03T04:31:48.160Z,1.60
2018-10-03T04:34:16.559Z,1.97
2018-10-03T04:36:44.833Z,3.63
2018-10-03T04:39:13.737Z,1.97
2018-10-03T04:41:42.078Z,1.53
2018-10-03T04:44:10.432Z,1.63
2018-10-03T04:46:38.796Z,2.90
2018-10-03T04:49:07.312Z,1.80
2018-10-03T04:51:36.585Z,3.03
2018-10-03T04:54:04.940Z,1.90
2018-10-03T04:56:34.288Z,2.10
2018-10-03T04:59:02.776Z,3.70
2018-10-03T05:01:31.478Z,2.50
2018-10-03T05:03:59.921Z,4.53
2018-10-03T05:06:28.415Z,2.60
2018-10-03T05:08:56.747Z,2.23
2018-10-03T05:11:25.152Z,4.53
2018-10-03T05:13:53.620Z,4.00
2018-10-03T05:16:21.989Z,2.13
2018-10-03T05:18:50.381Z,2.00
2018-10-03T05:21:19.005Z,2.00
2018-10-03T05:23:47.886Z,5.13
2018-10-03T05:26:16.256Z,2.13
2018-10-03T05:28:44.748Z,2.47
2018-10-03T05:31:13.142Z,3.67
2018-10-03T05:33:42.581Z,3.27
2018-10-03T05:36:12.043Z,2.40
2018-10-03T05:38:40.408Z,2.03
2018-10-03T05:41:10.026Z,4.40
2018-10-03T05:43:40.981Z,2.40
2018-10-03T05:46:09.456Z,3.43
2018-10-03T05:48:37.967Z,2.50
2018-10-03T05:51:06.320Z,5.57
2018-10-03T05:53:34.821Z,2.43
2018-10-03T05:56:03.119Z,6.53
2018-10-03T05:58:31.568Z,5.60
2018-10-03T06:01:01.075Z,4.47
2018-10-03T06:03:32.590Z,3.43
2018-10-03T06:06:05.533Z,3.00
2018-10-03T06:08:34.870Z,2.53
2018-10-03T06:11:05.821Z,4.43
2018-10-03T06:13:35.269Z,2.53
2018-10-03T06:16:03.924Z,4.03
2018-10-03T06:18:32.424Z,3.80
2018-10-03T06:21:01.246Z,3.47
2018-10-03T06:23:31.666Z,2.23
2018-10-03T06:26:00.053Z,1.43
2018-10-03T06:28:28.452Z,3.90
2018-10-03T06:30:56.764Z,3.93
2018-10-03T06:33:25.279Z,2.93
2018-10-03T06:35:53.684Z,2.77
2018-10-03T06:38:22.082Z,3.43
2018-10-03T06:40:50.393Z,6.03
2018-10-03T06:43:18.714Z,5.57
2018-10-03T06:45:47.253Z,3.70
2018-10-03T06:48:15.555Z,3.97
2018-10-03T06:50:43.947Z,2.97
2018-10-03T06:53:12.428Z,1.80
2018-10-03T06:55:41.045Z,2.53
2018-10-03T06:58:09.371Z,1.33
2018-10-03T07:00:38.030Z,1.70
2018-10-03T07:03:15.479Z,3.40
2018-10-03T07:05:43.826Z,2.83
2018-10-03T07:08:12.411Z,4.10
2018-10-03T07:10:42.049Z,3.77
2018-10-03T07:13:11.260Z,4.33
2018-10-03T07:15:39.848Z,4.47
2018-10-03T07:18:08.212Z,3.23
2018-10-03T07:20:36.688Z,4.60
2018-10-03T07:23:08.847Z,4.33
2018-10-03T07:25:38.452Z,4.57
2018-10-03T07:28:07.523Z,3.43
2018-10-03T07:30:35.866Z,3.33
2018-10-03T07:33:05.400Z,3.60
2018-10-03T07:35:33.740Z,6.20
2018-10-03T07:38:03.148Z,7.97
2018-10-03T07:40:41.098Z,4.83
2018-10-03T07:43:09.489Z,3.23
2018-10-03T07:45:46.357Z,4.17
2018-10-03T07:48:14.733Z,4.40
2018-10-03T07:50:43.020Z,5.90
2018-10-03T07:53:12.428Z,4.73
2018-10-03T07:55:40.756Z,2.73
2018-10-03T07:58:10.303Z,4.83
2018-10-03T08:00:38.710Z,5.07
2018-10-03T08:03:13.032Z,3.97
2018-10-03T08:05:41.411Z,2.63
2018-10-03T08:08:09.895Z,4.63
2018-10-03T08:10:39.222Z,4.13
2018-10-03T08:13:08.911Z,3.20
2018-10-03T08:15:37.992Z,4.30
2018-10-03T08:18:08.194Z,5.03
2018-10-03T08:20:38.255Z,4.57
2018-10-03T08:23:07.247Z,4.27
2018-10-03T08:25:36.099Z,5.07
2018-10-03T08:28:04.992Z,6.83
2018-10-03T08:30:33.816Z,5.70
2018-10-03T08:33:02.777Z,5.80
2018-10-03T08:35:31.545Z,3.27
2018-10-03T08:38:00.517Z,8.10
2018-10-03T08:40:29.537Z,2.17
2018-10-03T08:42:58.348Z,4.37
2018-10-03T08:45:27.225Z,3.70
2018-10-03T08:47:55.960Z,3.17
2018-10-03T08:50:24.763Z,4.30
2018-10-03T08:52:53.713Z,2.63
2018-10-03T08:55:22.506Z,3.67
2018-10-03T08:57:51.337Z,3.10
2018-10-03T09:00:20.124Z,3.03
2018-10-03T09:02:49.040Z,2.50
2018-10-03T09:05:17.869Z,2.73
2018-10-03T09:07:46.692Z,3.07
2018-10-03T09:10:15.580Z,2.13
2018-10-03T09:12:44.488Z,2.27
2018-10-03T09:15:13.380Z,2.43
2018-10-03T09:17:42.721Z,2.00
2018-10-03T09:20:11.526Z,3.63
2018-10-03T09:22:40.354Z,1.90
2018-10-03T09:25:09.149Z,3.13
2018-10-03T09:27:38.037Z,8.63
2018-10-03T09:30:06.864Z,3.37
2018-10-03T09:32:35.689Z,2.13
2018-10-03T09:35:16.188Z,2.80
2018-10-03T09:37:45.059Z,1.47
2018-10-03T09:40:13.870Z,1.50
2018-10-03T09:42:43.131Z,1.87
2018-10-03T09:45:12.317Z,3.57
2018-10-03T09:47:41.527Z,1.70
2018-10-03T09:50:10.854Z,2.57
2018-10-03T09:52:40.845Z,2.67
2018-10-03T09:55:09.715Z,1.50
2018-10-03T09:57:38.565Z,2.90
2018-10-03T10:00:07.636Z,2.20
2018-10-03T10:02:37.020Z,2.17
2018-10-03T10:05:05.956Z,2.50
2018-10-03T10:07:34.876Z,2.27
2018-10-03T10:10:03.661Z,2.10
2018-10-03T10:12:32.533Z,2.33
2018-10-03T10:15:02.570Z,2.17
2018-10-03T10:17:32.208Z,1.80
2018-10-03T10:20:02.065Z,1.40
2018-10-03T10:22:30.871Z,2.70
2018-10-03T10:24:59.732Z,1.27
2018-10-03T10:27:28.610Z,1.53
2018-10-03T10:29:57.520Z,1.57
2018-10-03T10:32:27.122Z,1.60
2018-10-03T10:34:55.766Z,1.67
2018-10-03T10:37:24.684Z,1.37
2018-10-03T10:39:53.521Z,4.20
2018-10-03T10:42:22.401Z,2.30
2018-10-03T10:44:51.230Z,1.70
2018-10-03T10:47:20.227Z,1.83
2018-10-03T10:49:49.107Z,2.10
2018-10-03T10:52:17.920Z,1.93
2018-10-03T10:54:46.727Z,1.73
2018-10-03T10:57:15.575Z,2.27
2018-10-03T10:59:44.432Z,2.27
2018-10-03T11:02:13.356Z,2.93
2018-10-03T11:04:42.156Z,1.93
2018-10-03T11:07:10.996Z,4.63
2018-10-03T11:09:39.809Z,1.50
2018-10-03T11:12:08.620Z,2.73
2018-10-03T11:14:37.431Z,1.63
2018-10-03T11:17:06.565Z,3.13
2018-10-03T11:19:35.480Z,3.50
2018-10-03T11:22:04.332Z,2.73
2018-10-03T11:24:34.596Z,1.87
2018-10-03T11:27:03.019Z,2.07
2018-10-03T11:29:31.831Z,5.03
2018-10-03T11:32:00.658Z,2.80
2018-10-03T11:34:29.600Z,2.70
2018-10-03T11:36:58.403Z,3.17
2018-10-03T11:39:28.280Z,2.60
2018-10-03T11:41:57.095Z,4.23
2018-10-03T11:44:25.912Z,2.57
2018-10-03T11:46:54.852Z,2.07
2018-10-03T11:49:23.655Z,2.73
2018-10-03T11:51:52.488Z,3.17
2018-10-03T11:54:21.328Z,2.77
2018-10-03T11:56:50.471Z,4.63
2018-10-03T11:59:19.312Z,3.23
2018-10-03T12:01:48.097Z,3.37
2018-10-03T12:04:16.889Z,2.90
2018-10-03T12:06:45.770Z,3.77
2018-10-03T12:09:14.880Z,2.30
2018-10-03T12:11:43.665Z,2.00
2018-10-03T12:14:13.687Z,2.53
2018-10-03T12:16:42.869Z,3.10
2018-10-03T12:19:11.658Z,3.30
2018-10-03T12:21:40.445Z,3.13
2018-10-03T12:24:10.615Z,2.70
2018-10-03T12:26:39.473Z,2.67
2018-10-03T12:29:08.339Z,2.67
2018-10-03T12:31:37.550Z,3.80
2018-10-03T12:34:06.580Z,3.47
2018-10-03T12:36:35.452Z,2.50
2018-10-03T12:39:06.062Z,2.83
2018-10-03T12:41:34.888Z,2.63
2018-10-03T12:44:04.743Z,6.57
2018-10-03T12:46:33.687Z,4.80
2018-10-03T12:49:02.480Z,10.37
2018-10-03T12:51:31.292Z,3.60
2018-10-03T12:54:01.104Z,5.77
2018-10-03T12:56:30.055Z,5.40
2018-10-03T12:58:58.899Z,3.80
2018-10-03T13:01:27.712Z,3.53
2018-10-03T13:03:56.517Z,2.67
2018-10-03T13:06:25.305Z,3.53
2018-10-03T13:08:54.111Z,4.07
2018-10-03T13:11:22.942Z,2.63
2018-10-03T13:13:52.855Z,2.90
2018-10-03T13:16:21.606Z,3.17
2018-10-03T13:19:06.796Z,3.93
2018-10-03T13:21:36.343Z,2.20
2018-10-03T13:24:05.162Z,2.17
2018-10-03T13:26:34.055Z,2.67
2018-10-03T13:29:03.075Z,3.83
2018-10-03T13:31:31.911Z,2.77
2018-10-03T13:34:00.829Z,2.97
2018-10-03T13:36:29.679Z,2.10
2018-10-03T13:38:58.529Z,2.77
2018-10-03T13:41:27.387Z,2.93
2018-10-03T13:43:56.210Z,2.67
2018-10-03T13:46:25.352Z,2.60
2018-10-03T13:48:54.145Z,2.50
2018-10-03T13:51:22.939Z,2.70
2018-10-03T13:53:51.826Z,2.90
2018-10-03T13:56:20.626Z,2.00
2018-10-03T13:58:49.439Z,2.60
2018-10-03T14:01:18.288Z,2.50
2018-10-03T14:03:47.091Z,2.47
2018-10-03T14:06:15.899Z,2.33
2018-10-03T14:08:44.701Z,2.20
2018-10-03T14:11:13.620Z,2.13
2018-10-03T14:13:42.376Z,2.70
2018-10-03T14:16:11.172Z,2.50
2018-10-03T14:18:40.060Z,4.20
2018-10-03T14:21:08.795Z,2.37
2018-10-03T14:23:37.648Z,1.60
2018-10-03T14:26:06.456Z,1.93
2018-10-03T14:28:36.760Z,1.60
2018-10-03T14:31:06.474Z,2.27
2018-10-03T14:33:35.520Z,2.33
2018-10-03T14:36:05.135Z,2.50
2018-10-03T14:38:34.516Z,2.23
2018-10-03T14:41:03.410Z,1.80
2018-10-03T14:43:32.558Z,1.93
2018-10-03T14:46:01.677Z,1.80
2018-10-03T14:48:30.451Z,2.10
2018-10-03T14:50:59.237Z,2.47
2018-10-03T14:53:28.052Z,3.97
2018-10-03T14:55:56.919Z,2.53
2018-10-03T14:58:25.873Z,2.10
2018-10-03T15:00:54.690Z,2.27
2018-10-03T15:03:23.608Z,2.20
2018-10-03T15:05:53.381Z,2.97
2018-10-03T15:08:23.212Z,2.50
2018-10-03T15:10:52.034Z,2.23
2018-10-03T15:13:20.844Z,2.03
2018-10-03T15:15:49.688Z,3.43
2018-10-03T15:18:18.572Z,2.73
2018-10-03T15:20:47.356Z,2.30
2018-10-03T15:23:16.160Z,3.13
2018-10-03T15:25:45.078Z,3.13
2018-10-03T15:28:13.879Z,2.03
2018-10-03T15:30:42.688Z,2.90
2018-10-03T15:33:11.542Z,2.70
2018-10-03T15:35:40.469Z,3.17
2018-10-03T15:38:09.284Z,2.90
2018-10-03T15:40:38.256Z,3.30
2018-10-03T15:43:07.248Z,4.00
2018-10-03T15:45:36.145Z,6.10
2018-10-03T15:48:06.077Z,5.10
2018-10-03T15:50:34.900Z,2.97
2018-10-03T15:53:03.683Z,2.20
2018-10-03T15:55:32.484Z,1.80
2018-10-03T15:58:02.380Z,3.33
2018-10-03T16:00:33.092Z,3.17
2018-10-03T16:03:01.928Z,2.67
2018-10-03T16:05:30.801Z,1.70
2018-10-03T16:07:59.577Z,2.33
2018-10-03T16:10:28.359Z,3.73
2018-10-03T16:12:57.189Z,4.67
2018-10-03T16:15:25.977Z,2.13
2018-10-03T16:17:54.807Z,2.53
2018-10-03T16:20:23.675Z,8.10
2018-10-03T16:22:52.510Z,6.20
2018-10-03T16:25:21.315Z,2.50
2018-10-03T16:27:50.145Z,2.40
2018-10-03T16:30:18.929Z,2.50
2018-10-03T16:32:47.744Z,2.20
2018-10-03T16:35:17.384Z,2.53
2018-10-03T16:37:46.224Z,2.40
2018-10-03T16:40:15.024Z,2.33
2018-10-03T16:42:43.833Z,2.40
2018-10-03T16:45:12.647Z,3.00
2018-10-03T16:47:41.468Z,3.37
2018-10-03T16:50:10.366Z,2.87
2018-10-03T16:52:39.203Z,2.77
2018-10-03T16:55:08.048Z,3.27
2018-10-03T16:57:36.839Z,3.80
2018-10-03T17:00:05.730Z,3.03
2018-10-03T17:02:34.553Z,19.63
2018-10-03T17:05:03.400Z,5.03
2018-10-03T17:07:32.212Z,4.37
2018-10-03T17:10:01.879Z,3.93
2018-10-03T17:12:30.704Z,3.80
2018-10-03T17:14:59.661Z,4.90
2018-10-03T17:17:28.534Z,5.40
2018-10-03T17:19:57.371Z,7.40
2018-10-03T17:22:26.177Z,4.63
2018-10-03T17:24:55.023Z,12.17
2018-10-03T17:27:23.855Z,8.40
2018-10-03T17:29:52.648Z,7.23
2018-10-03T17:32:21.464Z,5.40
2018-10-03T17:34:50.384Z,9.10
2018-10-03T17:37:19.223Z,28.03
2018-10-03T17:39:48.016Z,10.20
2018-10-03T17:42:17.111Z,8.10
2018-10-03T17:44:45.925Z,6.50
2018-10-03T17:47:14.700Z,5.83
2018-10-03T17:49:43.516Z,6.67
2018-10-03T17:52:12.355Z,5.20
2018-10-03T17:54:41.168Z,6.70
2018-10-03T17:57:09.980Z,5.37
2018-10-03T17:59:38.981Z,5.43
2018-10-03T18:02:09.959Z,5.27
2018-10-03T18:04:48.560Z,6.40
2018-10-03T18:07:22.190Z,7.20
2018-10-03T18:09:55.836Z,29.53
2018-10-03T18:12:28.527Z,9.17
2018-10-03T18:14:57.888Z,9.23
2018-10-03T18:17:28.328Z,9.40
2018-10-03T18:19:57.242Z,8.40
2018-10-03T18:22:26.173Z,16.00
2018-10-03T18:24:56.264Z,10.83
2018-10-03T18:27:25.113Z,14.50
2018-10-03T18:29:57.035Z,13.87
2018-10-03T18:32:26.555Z,16.30
2018-10-03T18:34:55.412Z,16.13
2018-10-03T18:37:24.336Z,18.90
2018-10-03T18:39:53.135Z,13.87
2018-10-03T18:42:22.156Z,12.77
2018-10-03T18:44:51.088Z,13.20
2018-10-03T18:47:20.035Z,14.00
2018-10-03T18:49:48.848Z,14.87
2018-10-03T18:52:19.240Z,12.27
2018-10-03T18:54:48.017Z,12.70
2018-10-03T18:57:17.376Z,12.17
2018-10-03T18:59:46.160Z,12.37
2018-10-03T19:02:15.377Z,13.57
2018-10-03T19:04:46.084Z,17.77
2018-10-03T19:07:15.479Z,17.40
2018-10-03T19:09:46.199Z,19.13
2018-10-03T19:12:15.724Z,20.50
2018-10-03T19:14:51.161Z,19.13
2018-10-03T19:17:19.967Z,24.07
2018-10-03T19:19:48.819Z,23.70
2018-10-03T19:22:18.483Z,26.43
2018-10-03T19:24:47.361Z,22.03
2018-10-03T19:27:16.183Z,14.40
2018-10-03T19:29:45.005Z,12.90
2018-10-03T19:32:13.902Z,11.03
2018-10-03T19:34:42.763Z,10.30
2018-10-03T19:37:11.676Z,16.70
2018-10-03T19:39:40.624Z,50.83
2018-10-03T19:42:10.747Z,48.53
2018-10-03T19:44:39.866Z,34.80
2018-10-03T19:47:10.538Z,23.23
2018-10-03T19:49:42.123Z,16.33
2018-10-03T19:52:11.544Z,9.63
2018-10-03T19:54:41.619Z,10.80
2018-10-03T19:57:13.344Z,10.47
2018-10-03T19:59:42.332Z,9.93
2018-10-03T20:02:11.269Z,10.87
2018-10-03T20:04:40.210Z,13.97
2018-10-03T20:07:09.075Z,15.40
2018-10-03T20:09:37.916Z,14.90
2018-10-03T20:12:07.972Z,13.33
2018-10-03T20:14:36.968Z,17.23
2018-10-03T20:17:05.912Z,15.57
2018-10-03T20:19:35.008Z,14.70
2018-10-03T20:22:03.921Z,13.33
2018-10-03T20:24:32.840Z,16.17
2018-10-03T20:27:01.651Z,11.70
2018-10-03T20:29:31.709Z,13.30
2018-10-03T20:32:00.780Z,13.13
2018-10-03T20:34:30.651Z,13.57
2018-10-03T20:36:59.534Z,11.07
2018-10-03T20:39:28.343Z,10.40
2018-10-03T20:41:57.172Z,11.17
2018-10-03T20:44:26.001Z,12.37
2018-10-03T20:46:54.797Z,11.50
2018-10-03T20:49:23.600Z,7.73
2018-10-03T20:51:52.409Z,7.43
2018-10-03T20:54:21.309Z,8.13
2018-10-03T20:56:50.031Z,9.77
2018-10-03T20:59:18.844Z,14.53
2018-10-03T21:01:47.700Z,11.20
2018-10-03T21:04:16.536Z,12.10
2018-10-03T21:06:45.352Z,9.77
2018-10-03T21:09:14.184Z,7.23
2018-10-03T21:11:43.039Z,8.23
2018-10-03T21:14:11.846Z,8.70
2018-10-03T21:16:40.628Z,11.33
2018-10-03T21:19:09.457Z,11.90
2018-10-03T21:21:38.304Z,14.27
2018-10-03T21:24:07.452Z,9.23
2018-10-03T21:26:36.244Z,9.23
2018-10-03T21:29:05.124Z,9.03
2018-10-03T21:31:33.920Z,8.60
2018-10-03T21:34:02.857Z,8.50
2018-10-03T21:36:31.670Z,9.30
2018-10-03T21:39:00.518Z,7.50
2018-10-03T21:41:29.320Z,6.60
2018-10-03T21:43:58.130Z,7.90
2018-10-03T21:46:26.911Z,9.30
2018-10-03T21:48:55.741Z,9.20
2018-10-03T21:51:24.535Z,8.03
2018-10-03T21:53:53.351Z,7.17
2018-10-03T21:56:22.765Z,7.93
2018-10-03T21:58:51.608Z,10.63
2018-10-03T22:01:20.420Z,6.83
2018-10-03T22:03:49.356Z,6.37
2018-10-03T22:06:18.132Z,8.00
2018-10-03T22:08:46.915Z,5.50
2018-10-03T22:11:15.688Z,8.23
2018-10-03T22:13:44.564Z,6.37
2018-10-03T22:16:13.382Z,6.47
2018-10-03T22:18:42.208Z,5.03
2018-10-03T22:21:11.074Z,5.83
2018-10-03T22:23:39.907Z,6.87
2018-10-03T22:26:08.711Z,6.20
2018-10-03T22:28:37.548Z,4.93
2018-10-03T22:31:06.360Z,5.60
2018-10-03T22:33:35.534Z,5.20
2018-10-03T22:36:04.344Z,5.33
2018-10-03T22:38:33.144Z,6.80
2018-10-03T22:41:01.996Z,6.37
2018-10-03T22:43:30.864Z,5.90
2018-10-03T22:45:59.739Z,6.30
2018-10-03T22:48:28.622Z,6.17
2018-10-03T22:50:57.493Z,5.43
2018-10-03T22:53:26.312Z,5.57
2018-10-03T22:55:55.138Z,7.03
2018-10-03T22:58:23.936Z,7.00
2018-10-03T23:00:52.800Z,7.33
2018-10-03T23:03:21.763Z,7.90
2018-10-03T23:05:50.648Z,8.63
2018-10-03T23:08:19.470Z,7.37
2018-10-03T23:10:48.311Z,11.23
2018-10-03T23:13:18.263Z,11.57
2018-10-03T23:15:47.116Z,11.50
2018-10-03T23:18:15.984Z,8.70
2018-10-03T23:20:44.846Z,10.20
2018-10-03T23:23:13.768Z,11.13
2018-10-03T23:25:42.631Z,9.17
2018-10-03T23:28:11.500Z,8.23
2018-10-03T23:30:40.348Z,8.27
2018-10-03T23:33:09.232Z,8.13
2018-10-03T23:35:38.106Z,7.37
2018-10-03T23:38:06.985Z,9.50
2018-10-03T23:40:35.804Z,8.70
2018-10-03T23:43:04.620Z,9.97
2018-10-03T23:45:33.444Z,10.50
2018-10-03T23:48:02.269Z,28.73
2018-10-03T23:50:31.091Z,8.77
2018-10-03T23:52:59.921Z,9.50
2018-10-03T23:55:28.758Z,7.17
2018-10-03T23:57:57.688Z,8.00
